Time;durP1;ratioP1;P1;durP2;ratioP2;P2;SDS_P1;SDS_P2;PMS_P1;PMS_P2;Temp;Humidity;BMP_temperature;BMP_pressure;BME280_temperature;BME280_humidity;BME280_pressure;Samples;Min_cycle;Max_cycle;Signal;HPM_P1;HPM_P2
2022/03/02 00:01:40;;;;;;;44.58;27.58;;;6.10;99.90;;;;;;5089086;28;20048;-70
2022/03/02 00:04:06;;;;;;;40.03;26.52;;;6.10;99.90;;;;;;5088849;28;20048;-72
2022/03/02 00:06:32;;;;;;;42.67;26.55;;;6.10;99.90;;;;;;5088790;28;20041;-72
2022/03/02 00:08:57;;;;;;;44.83;27.95;;;6.00;99.90;;;;;;5089417;28;20049;-72
2022/03/02 00:11:24;;;;;;;41.60;27.00;;;6.00;99.90;;;;;;5089672;28;20059;-71
2022/03/02 00:13:49;;;;;;;46.40;27.38;;;6.00;99.90;;;;;;5088714;28;20033;-70
2022/03/02 00:16:16;;;;;;;44.20;26.52;;;6.00;99.90;;;;;;5073755;28;20045;-72
2022/03/02 00:18:43;;;;;;;44.53;27.27;;;6.00;99.90;;;;;;5089614;28;20048;-71
2022/03/02 00:21:09;;;;;;;47.47;28.17;;;6.00;99.90;;;;;;5088929;28;20076;-72
2022/03/02 00:23:35;;;;;;;45.80;27.60;;;6.00;99.90;;;;;;5088568;28;20036;-71
2022/03/02 00:26:01;;;;;;;47.60;27.30;;;6.00;99.90;;;;;;5088390;28;20068;-72
2022/03/02 00:28:27;;;;;;;42.60;26.42;;;5.90;99.90;;;;;;5088955;28;20153;-70
2022/03/02 00:30:53;;;;;;;44.17;27.85;;;6.00;99.90;;;;;;5088874;28;20036;-71
2022/03/02 00:33:18;;;;;;;47.20;27.60;;;5.90;99.90;;;;;;5088304;28;20036;-72
2022/03/02 00:35:44;;;;;;;48.83;28.70;;;6.00;99.90;;;;;;5088366;28;20036;-71
2022/03/02 00:38:10;;;;;;;50.53;28.60;;;5.90;99.90;;;;;;5087810;28;20040;-71
2022/03/02 00:40:41;;;;;;;51.45;29.25;;;5.90;99.90;;;;;;5089414;28;20048;-72
2022/03/02 00:43:08;;;;;;;46.67;27.98;;;5.80;99.90;;;;;;5089693;28;20100;-72
2022/03/02 00:45:35;;;;;;;46.40;28.30;;;5.90;99.90;;;;;;5087712;28;20040;-72
2022/03/02 00:48:03;;;;;;;47.00;29.30;;;5.90;99.90;;;;;;5088079;28;20131;-72
2022/03/02 00:50:29;;;;;;;49.05;28.80;;;5.80;99.90;;;;;;5088379;28;20047;-71
2022/03/02 00:52:55;;;;;;;48.10;30.10;;;5.80;99.90;;;;;;5088073;28;20037;-72
2022/03/02 00:55:21;;;;;;;45.13;27.05;;;5.90;99.90;;;;;;5088379;28;20037;-72
2022/03/02 00:57:46;;;;;;;48.42;28.77;;;5.80;99.90;;;;;;5088619;28;20135;-71
2022/03/02 01:00:13;;;;;;;47.60;28.13;;;5.80;99.90;;;;;;5071369;28;20044;-71
2022/03/02 01:02:39;;;;;;;44.67;28.48;;;5.80;99.90;;;;;;5101868;28;20076;-73
2022/03/02 01:05:06;;;;;;;45.63;28.60;;;5.80;99.90;;;;;;5067595;28;20071;-72
2022/03/02 01:07:32;;;;;;;47.22;28.02;;;5.80;99.90;;;;;;5095127;28;20080;-71
2022/03/02 01:09:59;;;;;;;48.17;27.88;;;5.80;99.90;;;;;;5032350;28;20060;-71
2022/03/02 01:12:25;;;;;;;49.10;29.58;;;5.80;99.90;;;;;;5081452;28;20033;-72
2022/03/02 01:14:51;;;;;;;49.33;29.27;;;5.80;99.90;;;;;;5048695;28;20044;-71
2022/03/02 01:17:17;;;;;;;47.50;28.20;;;5.70;99.90;;;;;;5092360;28;20051;-72
2022/03/02 01:19:43;;;;;;;47.08;29.58;;;5.70;99.90;;;;;;5092013;28;20487;-71
2022/03/02 01:22:09;;;;;;;47.60;29.00;;;5.70;99.90;;;;;;5091829;28;20071;-71
2022/03/02 01:24:34;;;;;;;47.75;28.25;;;5.70;99.90;;;;;;5074491;28;20490;-72
2022/03/02 01:27:03;;;;;;;51.38;29.55;;;5.70;99.90;;;;;;5091682;28;20370;-72
2022/03/02 01:29:30;;;;;;;47.47;29.08;;;5.60;99.90;;;;;;5091606;28;20478;-73
2022/03/02 01:31:57;;;;;;;47.67;29.60;;;5.60;99.90;;;;;;5092489;28;20040;-71
2022/03/02 01:34:23;;;;;;;47.22;29.35;;;5.50;99.90;;;;;;5091376;28;20036;-70
2022/03/02 01:36:49;;;;;;;47.33;29.60;;;5.50;99.90;;;;;;5088673;28;20375;-72
2022/03/02 01:39:15;;;;;;;50.35;30.40;;;5.40;99.90;;;;;;5090037;28;20048;-72
2022/03/02 01:41:41;;;;;;;47.53;29.83;;;5.40;99.90;;;;;;5090722;28;20128;-72
2022/03/02 01:44:06;;;;;;;50.05;29.58;;;5.30;99.90;;;;;;5090573;28;20043;-71
2022/03/02 01:46:32;;;;;;;50.17;30.52;;;5.30;99.90;;;;;;5092170;28;20033;-72
2022/03/02 01:48:58;;;;;;;50.45;30.10;;;5.20;99.90;;;;;;5091351;28;20053;-71
2022/03/02 01:51:25;;;;;;;48.92;29.27;;;5.30;99.90;;;;;;5090725;28;20489;-71
2022/03/02 01:53:51;;;;;;;50.05;30.70;;;5.20;99.90;;;;;;5073768;28;20131;-72
2022/03/02 01:56:17;;;;;;;48.72;29.00;;;5.20;99.90;;;;;;5091796;28;20044;-71
2022/03/02 01:58:44;;;;;;;48.92;29.83;;;5.20;99.90;;;;;;5090451;28;20096;-72
2022/03/02 02:01:11;;;;;;;49.35;29.55;;;5.20;99.90;;;;;;5090995;28;20131;-72
2022/03/02 02:03:38;;;;;;;49.22;30.38;;;5.20;99.90;;;;;;5091840;28;20040;-72
2022/03/02 02:06:04;;;;;;;52.00;29.88;;;5.10;99.90;;;;;;5091179;28;20053;-72
2022/03/02 02:08:30;;;;;;;51.95;30.35;;;5.10;99.90;;;;;;5089943;28;20353;-71
2022/03/02 02:10:57;;;;;;;49.45;29.40;;;5.10;99.90;;;;;;5073664;28;20104;-72
2022/03/02 02:13:24;;;;;;;49.38;30.05;;;5.10;99.90;;;;;;5089597;28;20049;-72
2022/03/02 02:15:49;;;;;;;50.08;30.55;;;5.10;99.90;;;;;;5076413;28;20056;-72
2022/03/02 02:18:15;;;;;;;50.63;31.30;;;5.10;99.90;;;;;;5068988;28;20041;-71
2022/03/02 02:20:41;;;;;;;48.70;29.83;;;5.10;99.90;;;;;;5051813;28;20091;-72
2022/03/02 02:23:07;;;;;;;51.25;31.33;;;5.10;99.90;;;;;;5068789;28;20067;-72
2022/03/02 02:25:33;;;;;;;51.78;30.48;;;5.10;99.90;;;;;;5102620;28;20033;-73
2022/03/02 02:28:00;;;;;;;51.22;31.10;;;5.10;99.90;;;;;;5085517;28;20041;-72
2022/03/02 02:30:26;;;;;;;49.05;30.08;;;5.10;99.90;;;;;;5103148;28;20032;-71
2022/03/02 02:32:52;;;;;;;52.15;29.15;;;5.10;99.90;;;;;;5068503;28;20471;-71
2022/03/02 02:35:18;;;;;;;51.85;31.83;;;5.10;99.90;;;;;;5068804;28;20041;-72
2022/03/02 02:37:44;;;;;;;53.38;30.70;;;5.10;99.90;;;;;;5103124;28;20037;-72
2022/03/02 02:40:14;;;;;;;52.25;30.67;;;5.10;99.90;;;;;;5075641;28;20040;-71
2022/03/02 02:42:44;;;;;;;;;;;5.10;99.90;;;;;;5090402;28;20041;-71
2022/03/02 02:45:14;;;;;;;55.85;30.35;;;5.10;99.90;;;;;;5088565;28;19916;-71
2022/03/02 02:47:40;;;;;;;50.17;29.77;;;5.00;99.90;;;;;;5088797;28;20036;-71
2022/03/02 02:50:21;;;;;;;52.67;30.77;;;5.10;99.90;;;;;;5087656;28;20043;-71
2022/03/02 02:52:47;;;;;;;56.72;32.15;;;5.00;99.90;;;;;;5087866;28;20048;-71
2022/03/02 02:55:15;;;;;;;54.13;31.17;;;5.10;99.90;;;;;;5070376;28;20088;-73
2022/03/02 02:57:41;;;;;;;53.03;32.00;;;5.00;99.90;;;;;;5072420;28;20067;-71
2022/03/02 03:00:11;;;;;;;48.03;30.25;;;5.00;99.90;;;;;;5085468;28;20352;-71
2022/03/02 03:02:37;;;;;;;54.72;31.85;;;5.00;99.90;;;;;;5064880;28;20041;-71
2022/03/02 03:05:04;;;;;;;55.97;32.92;;;5.00;99.90;;;;;;5068061;28;20033;-71
2022/03/02 03:07:29;;;;;;;49.92;30.60;;;5.00;99.90;;;;;;5067308;28;20100;-72
2022/03/02 03:09:55;;;;;;;53.88;30.63;;;5.00;99.90;;;;;;5062768;28;1080581;-72
2022/03/02 03:12:20;;;;;;;51.95;30.90;;;5.00;99.90;;;;;;5051531;28;20060;-70
2022/03/02 03:14:46;;;;;;;53.70;31.55;;;4.90;99.90;;;;;;5071430;28;20426;-73
2022/03/02 03:17:13;;;;;;;55.13;31.70;;;5.00;99.90;;;;;;5087975;28;20036;-72
2022/03/02 03:19:39;;;;;;;52.38;31.33;;;4.90;99.90;;;;;;5087684;28;20052;-71
2022/03/02 03:22:06;;;;;;;54.97;31.55;;;4.90;99.90;;;;;;5087479;28;20065;-72
2022/03/02 03:24:32;;;;;;;53.67;30.75;;;4.90;99.90;;;;;;5087101;28;20072;-70
2022/03/02 03:26:58;;;;;;;55.22;31.10;;;4.80;99.90;;;;;;5070551;28;20040;-71
2022/03/02 03:29:24;;;;;;;49.08;30.65;;;4.90;99.90;;;;;;5087014;28;20055;-72
2022/03/02 03:31:49;;;;;;;53.42;31.67;;;4.90;99.90;;;;;;5088665;28;20054;-72
2022/03/02 03:34:15;;;;;;;55.35;32.60;;;4.90;99.90;;;;;;5087011;28;20482;-72
2022/03/02 03:36:41;;;;;;;53.92;31.20;;;4.80;99.90;;;;;;5070648;28;20066;-73
2022/03/02 03:39:08;;;;;;;52.40;32.38;;;4.90;99.90;;;;;;5065705;28;20108;-71
2022/03/02 03:41:34;;;;;;;55.90;30.95;;;4.90;99.90;;;;;;5067925;28;20048;-72
2022/03/02 03:43:59;;;;;;;49.05;30.67;;;4.90;99.90;;;;;;5068710;28;20376;-72
2022/03/02 03:46:25;;;;;;;50.85;30.77;;;4.80;99.90;;;;;;5067217;28;20472;-70
2022/03/02 03:48:51;;;;;;;53.42;31.63;;;4.80;99.90;;;;;;5101934;28;20041;-69
2022/03/02 03:51:17;;;;;;;53.97;32.42;;;4.80;99.90;;;;;;5084275;28;20043;-72
2022/03/02 03:53:43;;;;;;;54.20;32.25;;;4.80;99.90;;;;;;5101895;28;20052;-71
2022/03/02 03:56:09;;;;;;;52.85;30.85;;;4.80;99.90;;;;;;5070119;28;20029;-72
2022/03/02 03:58:35;;;;;;;52.83;31.20;;;4.80;99.90;;;;;;5088001;28;20096;-73
2022/03/02 04:01:00;;;;;;;59.33;31.55;;;4.80;99.90;;;;;;5087949;28;20127;-73
2022/03/02 04:03:26;;;;;;;56.47;33.22;;;4.80;99.90;;;;;;5087825;28;20063;-71
2022/03/02 04:05:52;;;;;;;57.22;32.22;;;4.70;99.90;;;;;;5087287;28;20043;-71
2022/03/02 04:08:18;;;;;;;54.08;31.48;;;4.70;99.90;;;;;;5087867;28;20043;-72
2022/03/02 04:10:45;;;;;;;58.42;31.98;;;4.70;99.90;;;;;;5086841;28;20094;-72
2022/03/02 04:13:11;;;;;;;59.80;32.72;;;4.70;99.90;;;;;;5070347;28;20032;-70
2022/03/02 04:15:38;;;;;;;56.80;33.13;;;4.70;99.90;;;;;;5076045;28;20037;-73
2022/03/02 04:18:06;;;;;;;55.35;32.20;;;4.70;99.90;;;;;;5067162;28;20049;-71
2022/03/02 04:20:32;;;;;;;55.55;32.33;;;4.70;99.90;;;;;;5068105;28;20056;-72
2022/03/02 04:22:58;;;;;;;55.70;32.35;;;4.70;99.90;;;;;;5066954;28;20033;-71
2022/03/02 04:25:25;;;;;;;55.97;31.85;;;4.70;99.90;;;;;;5065723;28;20040;-71
2022/03/02 04:27:51;;;;;;;56.35;32.60;;;4.70;99.90;;;;;;5101656;28;20048;-72
2022/03/02 04:30:17;;;;;;;57.72;33.10;;;4.70;99.90;;;;;;5066211;28;20098;-73
2022/03/02 04:32:43;;;;;;;53.42;31.83;;;4.70;99.90;;;;;;5066435;28;20048;-71
2022/03/02 04:35:10;;;;;;;56.33;31.63;;;4.60;99.90;;;;;;5066299;28;20068;-72
2022/03/02 04:37:37;;;;;;;54.03;31.67;;;4.60;99.90;;;;;;5066275;28;20123;-72
2022/03/02 04:40:05;;;;;;;60.90;33.78;;;4.70;99.90;;;;;;5051819;28;20487;-71
2022/03/02 04:42:36;;;;;;;59.08;33.25;;;4.60;99.90;;;;;;5049769;28;20087;-71
2022/03/02 04:45:03;;;;;;;59.05;33.28;;;4.60;99.90;;;;;;5095675;28;20052;-70
2022/03/02 04:47:28;;;;;;;58.42;33.72;;;4.60;99.90;;;;;;5086299;28;20090;-71
2022/03/02 04:49:54;;;;;;;58.28;32.17;;;4.60;99.90;;;;;;5066915;28;20060;-71
2022/03/02 04:52:20;;;;;;;58.05;32.53;;;4.60;99.90;;;;;;5066281;28;20041;-71
2022/03/02 04:57:30;;;;;;;54.97;32.30;;;4.60;99.90;;;;;;5065981;28;20059;-72
2022/03/02 04:59:55;;;;;;;60.42;33.80;;;4.60;99.90;;;;;;5065211;28;20081;-72
2022/03/02 05:02:21;;;;;;;56.55;33.22;;;4.60;99.90;;;;;;5066299;28;20043;-71
2022/03/02 05:04:49;;;;;;;62.33;34.25;;;4.60;99.90;;;;;;5066697;28;20171;-72
2022/03/02 05:07:15;;;;;;;58.47;33.72;;;4.50;99.90;;;;;;5098913;28;20036;-72
2022/03/02 05:09:42;;;;;;;57.67;33.33;;;4.50;99.90;;;;;;5065303;28;20468;-71
2022/03/02 05:12:08;;;;;;;57.05;31.38;;;4.50;99.90;;;;;;5066333;28;20094;-72
2022/03/02 05:14:34;;;;;;;57.72;32.88;;;4.50;99.90;;;;;;5100087;28;20045;-71
2022/03/02 05:16:59;;;;;;;56.40;32.53;;;4.50;99.90;;;;;;5085959;28;20132;-71
2022/03/02 05:19:25;;;;;;;55.78;32.05;;;4.50;99.90;;;;;;5068234;28;20074;-71
2022/03/02 05:21:52;;;;;;;58.97;32.90;;;4.50;99.90;;;;;;5086796;28;20063;-71
2022/03/02 05:24:17;;;;;;;55.08;31.48;;;4.50;99.90;;;;;;5085770;28;20063;-72
2022/03/02 05:26:43;;;;;;;60.10;34.05;;;4.40;99.90;;;;;;5070309;28;20056;-72
2022/03/02 05:29:09;;;;;;;60.22;34.67;;;4.40;99.90;;;;;;5065491;28;20037;-71
2022/03/02 05:31:34;;;;;;;58.10;32.47;;;4.40;99.90;;;;;;5067711;28;20045;-72
2022/03/02 05:34:00;;;;;;;59.42;33.42;;;4.40;99.90;;;;;;5066551;28;20051;-72
2022/03/02 05:36:26;;;;;;;60.40;33.75;;;4.40;99.90;;;;;;5066423;28;20041;-71
2022/03/02 05:38:52;;;;;;;59.53;33.75;;;4.40;99.90;;;;;;5066377;28;20041;-72
2022/03/02 05:41:19;;;;;;;55.33;33.63;;;4.40;99.90;;;;;;5067081;28;20426;-73
2022/03/02 05:43:45;;;;;;;64.20;36.13;;;4.40;99.90;;;;;;5099706;28;20048;-71
2022/03/02 05:46:11;;;;;;;58.90;32.75;;;4.40;99.90;;;;;;5100073;28;20102;-71
2022/03/02 05:48:37;;;;;;;60.83;34.72;;;4.40;99.90;;;;;;5064742;28;20054;-71
2022/03/02 05:51:03;;;;;;;61.53;35.08;;;4.40;99.90;;;;;;5066048;28;20041;-71
2022/03/02 05:53:29;;;;;;;58.28;34.22;;;4.40;99.90;;;;;;5050372;28;20069;-72
2022/03/02 05:55:55;;;;;;;58.50;33.00;;;4.40;99.90;;;;;;5098683;28;20033;-71
2022/03/02 05:58:21;;;;;;;65.25;35.05;;;4.40;99.90;;;;;;5099339;28;20060;-71
2022/03/02 06:00:46;;;;;;;57.90;33.13;;;4.40;99.90;;;;;;5067827;28;20045;-71
2022/03/02 06:03:13;;;;;;;59.47;34.78;;;4.40;99.90;;;;;;5082664;28;20076;-71
2022/03/02 06:05:39;;;;;;;59.72;34.88;;;4.40;99.90;;;;;;5065984;28;20101;-72
2022/03/02 06:08:07;;;;;;;57.65;33.13;;;4.40;99.90;;;;;;5083094;28;20041;-72
2022/03/02 06:10:34;;;;;;;57.97;34.85;;;4.40;99.90;;;;;;5066523;28;20128;-71
2022/03/02 06:13:00;;;;;;;60.70;34.25;;;4.40;99.90;;;;;;5084430;28;20072;-71
2022/03/02 06:15:26;;;;;;;63.55;34.42;;;4.40;99.90;;;;;;5082815;28;20037;-71
2022/03/02 06:17:52;;;;;;;58.53;33.88;;;4.40;99.90;;;;;;5083316;28;20093;-72
2022/03/02 06:20:18;;;;;;;56.28;33.85;;;4.30;99.90;;;;;;5083661;28;20037;-71
2022/03/02 06:22:44;;;;;;;60.03;33.95;;;4.30;99.90;;;;;;5054154;28;20057;-71
2022/03/02 06:25:10;;;;;;;61.80;34.92;;;4.40;99.90;;;;;;5083039;28;20041;-71
2022/03/02 06:27:38;;;;;;;56.10;33.20;;;4.40;99.90;;;;;;5083315;28;20053;-71
2022/03/02 06:30:06;;;;;;;64.25;35.22;;;4.30;99.90;;;;;;5083350;28;20046;-71
2022/03/02 06:32:34;;;;;;;58.05;34.63;;;4.40;99.90;;;;;;5092407;28;20475;-71
2022/03/02 06:35:00;;;;;;;63.35;35.22;;;4.30;99.90;;;;;;5105607;28;20070;-70
2022/03/02 06:37:26;;;;;;;58.20;31.95;;;4.40;99.90;;;;;;5089436;28;20037;-71
2022/03/02 06:39:53;;;;;;;56.92;32.95;;;4.40;99.90;;;;;;5072216;28;20123;-71
2022/03/02 06:42:22;;;;;;;57.17;32.15;;;4.30;99.90;;;;;;5072319;28;20047;-71
2022/03/02 06:45:11;;;;;;;59.78;34.75;;;4.30;99.90;;;;;;5088817;28;20055;-70
2022/03/02 06:47:52;;;;;;;62.20;34.25;;;4.40;99.90;;;;;;5072570;28;20048;-73
2022/03/02 06:50:23;;;;;;;57.97;33.35;;;4.40;99.90;;;;;;5089461;28;20051;-72
2022/03/02 06:52:54;;;;;;;57.75;33.47;;;4.30;99.90;;;;;;5072732;28;20064;-71
2022/03/02 06:55:21;;;;;;;57.80;32.88;;;4.40;99.90;;;;;;5088943;28;20076;-71
2022/03/02 06:57:56;;;;;;;57.97;33.17;;;4.40;99.90;;;;;;5089409;28;20059;-70
2022/03/02 07:00:23;;;;;;;55.60;31.20;;;4.40;99.90;;;;;;5088112;28;20064;-71
2022/03/02 07:03:14;;;;;;;59.25;33.97;;;4.30;99.90;;;;;;5088891;28;20049;-71
2022/03/02 07:05:40;;;;;;;58.67;32.17;;;4.30;99.90;;;;;;5088158;28;20390;-72
2022/03/02 07:08:08;;;;;;;54.88;31.90;;;4.30;99.90;;;;;;5056454;28;20047;-71
2022/03/02 07:10:35;;;;;;;60.45;32.58;;;4.30;99.90;;;;;;5082410;28;20044;-72
2022/03/02 07:13:03;;;;;;;58.10;33.50;;;4.30;99.90;;;;;;5086525;28;20070;-71
2022/03/02 07:15:31;;;;;;;57.78;33.65;;;4.30;99.90;;;;;;5089000;28;20051;-71
2022/03/02 07:18:02;;;;;;;57.90;31.10;;;4.40;99.90;;;;;;5085408;28;20155;-70
2022/03/02 07:20:29;;;;;;;54.30;32.00;;;4.40;99.90;;;;;;5087366;28;20068;-71
2022/03/02 07:22:56;;;;;;;58.70;33.10;;;4.40;99.90;;;;;;5076490;28;20041;-70
2022/03/02 07:25:29;;;;;;;57.20;32.83;;;4.40;99.90;;;;;;5101335;28;20067;-72
2022/03/02 07:27:56;;;;;;;56.25;32.30;;;4.50;99.90;;;;;;5068259;28;20098;-71
2022/03/02 07:30:22;;;;;;;56.20;32.13;;;4.40;99.90;;;;;;5052133;28;20098;-70
2022/03/02 07:32:52;;;;;;;55.65;31.92;;;4.50;99.90;;;;;;5102538;28;20041;-71
2022/03/02 07:35:18;;;;;;;;;;;4.50;99.90;;;;;;5067736;28;20048;-71
2022/03/02 07:37:45;;;;;;;53.67;30.88;;;4.50;99.90;;;;;;5075826;28;19942;-70
2022/03/02 07:40:11;;;;;;;52.72;30.02;;;4.50;99.90;;;;;;5087925;28;20043;-70
2022/03/02 07:42:37;;;;;;;55.83;30.70;;;4.60;99.90;;;;;;5087027;28;20040;-72
2022/03/02 07:45:05;;;;;;;52.58;29.17;;;4.60;99.90;;;;;;5086308;28;20044;-71
2022/03/02 07:47:32;;;;;;;55.63;30.48;;;4.60;99.90;;;;;;5070564;28;20078;-71
2022/03/02 07:49:58;;;;;;;49.05;28.92;;;4.70;99.90;;;;;;5087840;28;20068;-72
2022/03/02 07:52:29;;;;;;;57.55;30.42;;;4.70;99.90;;;;;;5082430;28;20052;-71
2022/03/02 07:55:01;;;;;;;53.20;30.83;;;4.70;99.90;;;;;;5086293;28;20040;-71
2022/03/02 07:57:29;;;;;;;52.58;29.92;;;4.80;99.90;;;;;;5087086;28;20406;-70
2022/03/02 07:59:58;;;;;;;53.67;30.20;;;4.80;99.90;;;;;;5074872;28;20055;-71
2022/03/02 08:02:25;;;;;;;52.28;29.40;;;4.80;99.90;;;;;;5066838;28;20045;-73
2022/03/02 08:04:53;;;;;;;50.08;29.73;;;4.90;99.90;;;;;;5100528;28;20063;-72
2022/03/02 08:07:19;;;;;;;51.92;29.63;;;5.00;99.90;;;;;;5095212;28;20069;-71
2022/03/02 08:09:45;;;;;;;50.33;29.92;;;5.00;99.90;;;;;;5080597;28;20108;-71
2022/03/02 08:12:12;;;;;;;49.35;29.08;;;5.10;99.90;;;;;;5080983;28;20033;-71
2022/03/02 08:14:37;;;;;;;48.75;29.00;;;5.20;99.90;;;;;;5082181;28;20486;-71
2022/03/02 08:17:04;;;;;;;48.85;28.85;;;5.30;99.90;;;;;;5092240;28;20045;-72
2022/03/02 08:19:30;;;;;;;47.75;28.90;;;5.40;99.90;;;;;;5063161;28;20040;-72
2022/03/02 08:22:05;;;;;;;45.25;26.00;;;5.60;99.90;;;;;;5065729;28;20057;-71
2022/03/02 08:24:31;;;;;;;44.35;26.65;;;5.70;99.90;;;;;;5086520;28;20071;-72
2022/03/02 08:27:00;;;;;;;44.38;26.70;;;5.80;99.90;;;;;;5081378;28;20048;-71
2022/03/02 08:29:30;;;;;;;44.33;25.45;;;6.00;99.90;;;;;;5067011;28;20074;-71
2022/03/02 08:31:59;;;;;;;44.75;25.50;;;6.10;99.90;;;;;;5098079;28;20037;-72
2022/03/02 08:34:30;;;;;;;42.72;25.17;;;6.30;99.90;;;;;;5068879;28;20059;-72
2022/03/02 08:36:56;;;;;;;40.50;25.13;;;6.40;99.90;;;;;;5068856;28;20052;-71
2022/03/02 08:39:23;;;;;;;44.75;25.63;;;6.50;99.90;;;;;;5089507;28;20041;-72
2022/03/02 08:41:49;;;;;;;42.88;25.23;;;6.60;99.90;;;;;;5071983;28;20040;-72
2022/03/02 08:44:15;;;;;;;40.38;24.17;;;6.70;99.90;;;;;;5088607;28;20052;-72
2022/03/02 08:46:44;;;;;;;45.00;25.83;;;6.80;99.90;;;;;;5072041;28;20044;-71
2022/03/02 08:49:09;;;;;;;42.38;24.50;;;6.90;99.90;;;;;;5072167;28;20040;-71
2022/03/02 08:51:39;;;;;;;40.25;24.83;;;7.10;99.90;;;;;;5087687;28;20121;-71
2022/03/02 08:54:05;;;;;;;40.42;25.65;;;7.20;99.90;;;;;;5070469;28;20037;-72
2022/03/02 08:56:38;;;;;;;40.97;24.88;;;7.30;99.90;;;;;;5103004;28;20041;-72
2022/03/02 08:59:05;;;;;;;40.47;24.70;;;7.40;99.90;;;;;;5069437;28;20100;-71
2022/03/02 09:01:31;;;;;;;40.90;24.73;;;7.60;99.90;;;;;;5102978;28;20128;-73
2022/03/02 09:04:01;;;;;;;41.75;24.33;;;7.70;99.90;;;;;;5103084;28;20043;-71
2022/03/02 09:06:27;;;;;;;40.50;23.92;;;7.80;99.90;;;;;;5103998;28;20052;-69
2022/03/02 09:08:57;;;;;;;37.90;23.40;;;7.90;99.90;;;;;;5105107;28;20117;-72
2022/03/02 09:11:22;;;;;;;37.15;21.30;;;8.10;99.90;;;;;;5090520;28;20051;-71
2022/03/02 09:13:51;;;;;;;39.35;20.98;;;8.30;99.90;;;;;;5090752;28;20045;-71
2022/03/02 09:16:17;;;;;;;34.80;20.60;;;8.40;99.90;;;;;;5090575;28;20037;-70
2022/03/02 09:18:44;;;;;;;34.20;20.52;;;8.50;99.90;;;;;;5090471;28;20050;-71
2022/03/02 09:21:12;;;;;;;33.17;20.48;;;8.60;99.90;;;;;;5073713;28;20077;-72
2022/03/02 09:23:40;;;;;;;31.77;18.42;;;8.70;99.90;;;;;;5069759;28;20044;-73
2022/03/02 09:26:13;;;;;;;37.65;19.90;;;8.70;99.90;;;;;;5090184;28;20048;-71
2022/03/02 09:28:41;;;;;;;33.47;19.95;;;8.90;99.90;;;;;;5089449;28;20067;-72
2022/03/02 09:31:11;;;;;;;34.30;18.90;;;8.90;99.90;;;;;;5073125;28;20040;-72
2022/03/02 09:33:37;;;;;;;31.40;18.73;;;9.00;99.90;;;;;;5090480;28;20107;-71
2022/03/02 09:36:08;;;;;;;30.73;17.90;;;9.10;99.90;;;;;;5093001;28;20041;-72
2022/03/02 09:38:35;;;;;;;28.90;17.85;;;9.10;99.60;;;;;;5057346;28;20105;-71
2022/03/02 09:41:06;;;;;;;31.73;17.45;;;9.10;99.90;;;;;;5088325;28;20038;-71
2022/03/02 09:43:33;;;;;;;28.85;16.83;;;9.10;96.50;;;;;;5088004;28;20034;-72
2022/03/02 09:46:05;;;;;;;30.52;17.90;;;9.20;97.60;;;;;;5087581;28;20041;-72
2022/03/02 09:48:33;;;;;;;27.13;16.98;;;9.30;95.90;;;;;;5086854;28;20029;-72
2022/03/02 09:51:02;;;;;;;27.42;16.98;;;9.30;92.50;;;;;;5082733;28;20067;-71
2022/03/02 09:53:30;;;;;;;28.23;17.08;;;9.40;92.40;;;;;;5077387;28;20135;-72
2022/03/02 09:56:01;;;;;;;29.73;17.38;;;9.40;90.50;;;;;;5072502;28;20074;-72
2022/03/02 09:58:28;;;;;;;30.20;17.80;;;9.30;89.30;;;;;;5070476;28;20041;-72
2022/03/02 10:00:56;;;;;;;30.20;16.80;;;9.40;90.50;;;;;;5054197;28;20053;-73
2022/03/02 10:03:34;;;;;;;27.35;17.65;;;9.40;89.80;;;;;;5037033;28;20049;-72
2022/03/02 10:06:05;;;;;;;27.70;16.67;;;9.40;89.40;;;;;;5068657;28;20049;-72
2022/03/02 10:08:35;;;;;;;30.10;16.95;;;9.50;87.30;;;;;;5094746;28;20042;-71
2022/03/02 10:11:06;;;;;;;29.33;17.80;;;9.50;85.70;;;;;;5067683;28;20104;-70
2022/03/02 10:13:33;;;;;;;30.42;17.52;;;9.60;86.00;;;;;;5087956;28;20065;-72
2022/03/02 10:16:06;;;;;;;28.70;17.17;;;9.60;88.90;;;;;;5070559;28;20041;-70
2022/03/02 10:18:35;;;;;;;30.92;18.08;;;9.70;86.80;;;;;;5088316;28;20042;-72
2022/03/02 10:21:04;;;;;;;28.45;17.20;;;9.70;85.80;;;;;;5086265;28;20045;-71
2022/03/02 10:23:33;;;;;;;29.33;16.73;;;9.80;85.10;;;;;;5036900;28;20033;-70
2022/03/02 10:25:58;;;;;;;31.00;17.17;;;9.80;81.00;;;;;;5068519;28;20044;-70
2022/03/02 10:28:26;;;;;;;27.08;16.73;;;9.90;81.70;;;;;;5087608;28;20037;-72
2022/03/02 10:31:23;;;;;;;28.25;16.85;;;9.90;79.10;;;;;;5104505;28;20124;-71
2022/03/02 10:33:56;;;;;;;28.70;17.17;;;9.90;75.50;;;;;;5073153;28;20044;-71
2022/03/02 10:36:27;;;;;;;31.13;18.00;;;10.00;81.80;;;;;;5104182;28;20078;-70
2022/03/02 10:38:58;;;;;;;26.75;16.30;;;10.10;80.70;;;;;;5073355;28;20071;-71
2022/03/02 10:41:26;;;;;;;27.40;17.15;;;10.30;80.00;;;;;;5074047;28;20041;-70
2022/03/02 10:43:58;;;;;;;32.53;17.42;;;10.30;77.90;;;;;;5073988;28;20063;-70
2022/03/02 10:46:28;;;;;;;30.50;17.55;;;10.40;75.90;;;;;;5074388;28;20032;-72
2022/03/02 10:49:06;;;;;;;26.85;16.33;;;10.30;74.50;;;;;;5074344;28;20440;-71
2022/03/02 10:51:34;;;;;;;28.25;16.80;;;10.50;75.30;;;;;;5074558;28;20063;-71
2022/03/02 10:54:05;;;;;;;25.70;16.42;;;10.60;74.90;;;;;;5108123;28;20033;-72
2022/03/02 10:56:38;;;;;;;27.20;17.10;;;10.60;74.00;;;;;;5057266;28;20111;-71
2022/03/02 10:59:09;;;;;;;28.98;17.13;;;10.80;74.10;;;;;;5106738;28;20062;-70
2022/03/02 11:01:36;;;;;;;30.50;17.55;;;10.90;72.60;;;;;;5108130;28;20055;-70
2022/03/02 11:04:05;;;;;;;29.55;17.33;;;11.00;72.60;;;;;;5073916;28;20045;-72
2022/03/02 11:06:32;;;;;;;31.67;17.55;;;11.00;71.30;;;;;;5073772;28;20079;-71
2022/03/02 11:09:00;;;;;;;28.15;16.63;;;11.10;71.70;;;;;;5073351;28;20037;-72
2022/03/02 11:11:27;;;;;;;29.95;17.67;;;11.20;70.10;;;;;;5054781;28;20057;-72
2022/03/02 11:13:55;;;;;;;26.92;16.75;;;11.30;70.10;;;;;;5057356;28;20067;-70
2022/03/02 11:16:22;;;;;;;29.10;17.70;;;11.30;69.90;;;;;;5057786;28;20037;-71
2022/03/02 11:18:50;;;;;;;30.77;18.02;;;11.40;70.10;;;;;;5073963;28;20361;-69
2022/03/02 11:21:19;;;;;;;28.45;17.30;;;11.50;69.50;;;;;;5074545;28;20052;-71
2022/03/02 11:23:54;;;;;;;31.63;17.98;;;11.60;69.10;;;;;;5057332;28;20037;-70
2022/03/02 11:26:29;;;;;;;28.08;16.95;;;11.70;68.80;;;;;;5057186;28;20109;-70
2022/03/02 11:28:58;;;;;;;29.95;16.95;;;11.80;68.20;;;;;;5076215;28;20093;-71
2022/03/02 11:31:30;;;;;;;27.77;16.33;;;11.80;66.80;;;;;;5059970;28;20101;-71
2022/03/02 11:34:30;;;;;;;27.20;16.13;;;11.90;67.90;;;;;;5076416;28;20132;-71
2022/03/02 11:37:00;;;;;;;;;;;12.00;67.50;;;;;;5110378;28;20049;-71
2022/03/02 11:39:27;;;;;;;29.60;17.05;;;12.10;65.40;;;;;;5078652;28;19944;-71
2022/03/02 11:41:56;;;;;;;27.73;17.02;;;12.10;68.30;;;;;;5075993;28;20050;-69
2022/03/02 11:44:29;;;;;;;28.00;17.42;;;12.20;68.10;;;;;;5076339;28;20041;-71
2022/03/02 11:47:00;;;;;;;26.77;15.95;;;12.30;67.80;;;;;;5076098;28;20044;-71
2022/03/02 11:49:45;;;;;;;26.80;15.93;;;12.50;67.00;;;;;;5109967;28;20040;-70
2022/03/02 11:52:14;;;;;;;29.98;17.00;;;12.50;65.70;;;;;;5110054;28;20053;-71
2022/03/02 11:54:49;;;;;;;25.63;15.73;;;12.60;65.70;;;;;;5075827;28;20069;-70
2022/03/02 11:57:16;;;;;;;25.92;16.08;;;12.60;65.00;;;;;;5075513;28;20077;-70
2022/03/02 11:59:43;;;;;;;29.65;16.48;;;12.70;64.50;;;;;;5076341;28;20033;-70
2022/03/02 12:02:14;;;;;;;24.90;16.38;;;12.60;65.00;;;;;;5075355;28;20029;-73
2022/03/02 12:04:55;;;;;;;27.95;16.35;;;12.80;64.70;;;;;;5042554;28;20041;-70
2022/03/02 12:07:22;;;;;;;24.50;15.50;;;13.00;64.80;;;;;;5075563;28;20040;-71
2022/03/02 12:09:48;;;;;;;27.17;16.73;;;13.00;64.60;;;;;;5056021;28;20049;-69
2022/03/02 12:12:16;;;;;;;26.52;16.38;;;13.10;63.40;;;;;;5076327;28;20045;-71
2022/03/02 12:14:52;;;;;;;26.25;16.02;;;13.10;62.40;;;;;;5075770;28;20032;-71
2022/03/02 12:17:21;;;;;;;24.67;15.15;;;13.00;61.60;;;;;;5059216;28;20427;-70
2022/03/02 12:19:50;;;;;;;26.15;16.00;;;13.10;61.90;;;;;;5075776;28;20033;-72
2022/03/02 12:22:17;;;;;;;25.30;15.77;;;13.00;61.30;;;;;;5074967;28;20101;-70
2022/03/02 12:24:45;;;;;;;23.33;15.05;;;13.00;61.50;;;;;;5074800;28;20032;-72
2022/03/02 12:27:12;;;;;;;23.92;15.50;;;13.10;61.30;;;;;;5074641;28;20039;-71
2022/03/02 12:29:40;;;;;;;24.02;15.25;;;13.10;60.80;;;;;;5073759;28;20033;-71
2022/03/02 12:32:16;;;;;;;23.77;15.60;;;13.10;60.50;;;;;;5074120;28;20124;-71
2022/03/02 12:34:50;;;;;;;22.88;14.70;;;13.10;60.80;;;;;;5057140;28;20479;-71
2022/03/02 12:37:18;;;;;;;26.10;16.33;;;13.10;60.50;;;;;;5074738;28;20052;-70
2022/03/02 12:39:44;;;;;;;24.10;15.63;;;13.10;61.00;;;;;;5075679;28;20044;-70
2022/03/02 12:42:11;;;;;;;25.70;15.68;;;13.30;60.50;;;;;;5076206;28;20452;-69